San Gennaro — IIOT2 — position and weather

sailwx.info

Track history (hours):
 
Tides and Currents Weather Stations Pressure Air Temp Water Temp Dewpoint Dewpoint Depression Visibility Wind Speed Wind Dir Waves Ship Positions

San Gennaro

Last reported at 2015-May-27 19:26 UTC. Time now 2015-May-27 22:05 UTC.
Position N 40°51' E 014°16'.

Length 27 m; draft 5.2 m.

Type: Tug. MMSI: 247295700.

Date/timePositionNaut miles runAvg speedWind from/ knotsBaromVisibWave heightAir tempDewpointWater temp
2015-May-27 19:26N 40°51' E 014°16'1 0.4
2015-May-27 17:29N 40°50' E 014°17'1 1.2
2015-May-27 16:32N 40°49' E 014°18'1 1.5
2015-May-27 15:33N 40°48' E 014°18'1 0.7
2015-May-27 14:33N 40°48' E 014°18'2 0.9
2015-May-27 12:22N 40°50' E 014°17'1 0.7
2015-May-27 11:33N 40°50' E 014°18'8 8.5
2015-May-27 10:33N 40°45' E 014°27'5 5.3
2015-May-27 09:33N 40°47' E 014°20'4 3.7
2015-May-27 08:32N 40°50' E 014°18'2 0.4
2015-May-27 04:19N 40°51' E 014°16'1 1.9
2015-May-27 03:33N 40°50' E 014°18'1 1.2
2015-May-27 02:22N 40°51' E 014°16'0 0.0
2015-May-27 01:23N 40°51' E 014°16'0 0.0
2015-May-26 21:22N 40°51' E 014°16'1 1.1
2015-May-26 20:27N 40°50' E 014°17'1 0.2
2015-May-26 15:33N 40°50' E 014°16'8 8.3
2015-May-26 14:33N 40°45' E 014°24'0 0.4
2015-May-26 13:23N 40°45' E 014°24'8 9.4
2015-May-26 12:33N 40°50' E 014°16'0 0.2
2015-May-26 11:16N 40°51' E 014°16'0 0.0
2015-May-26 06:11N 40°51' E 014°16'0 0.0
2015-May-26 04:33N 40°51' E 014°16'0 0.0
2015-May-25 19:10N 40°51' E 014°16'0 0.0
2015-May-25 18:30N 40°51' E 014°16'0 0.4
2015-May-25 17:31N 40°50' E 014°16'0 0.4
2015-May-25 16:23N 40°50' E 014°17'1 0.7
2015-May-25 15:08N 40°51' E 014°16'0 0.0
2015-May-25 13:17N 40°51' E 014°16'2 2.7
2015-May-25 12:32N 40°50' E 014°18'2 0.2
2015-May-25 02:14N 40°51' E 014°16'1 0.2
2015-May-24 19:33N 40°50' E 014°17'1 0.1
2015-May-24 01:29N 40°51' E 014°16'0 0.0
2015-May-23 23:06N 40°51' E 014°16'1 0.1
2015-May-23 19:16N 40°50' E 014°16'1 0.6
2015-May-23 18:19N 40°51' E 014°16'1 1.8
2015-May-23 17:34N 40°50' E 014°18'1 0.3
2015-May-23 13:14N 40°51' E 014°16'0 0.1
2015-May-23 07:20N 40°50' E 014°16'1 0.7
2015-May-23 06:18N 40°50' E 014°17'9 0.5
2015-May-22 13:30N 40°45' E 014°26'9 7.9
2015-May-22 12:22N 40°50' E 014°17'0 0.0
2015-May-21 14:33N 40°50' E 014°17'1 0.8
2015-May-21 13:17N 40°51' E 014°16'0 0.3
2015-May-21 11:33N 40°50' E 014°16'1 0.3
2015-May-21 08:18N 40°50' E 014°18'0 0.0
2015-May-21 07:06N 40°50' E 014°18'1 1.1
2015-May-21 06:25N 40°50' E 014°17'1 0.2
2015-May-21 00:27N 40°51' E 014°16'1 0.2
2015-May-20 21:27N 40°50' E 014°17'0 0.4
2015-May-20 20:28N 40°50' E 014°16'1 0.1
2015-May-20 15:19N 40°51' E 014°16'0 0.0
2015-May-20 14:29N 40°51' E 014°16'0 0.0
2015-May-20 13:27N 40°51' E 014°16'0 0.0
2015-May-20 12:24N 40°51' E 014°16'0 0.0
2015-May-20 11:18N 40°51' E 014°16'1 0.4
2015-May-20 07:29N 40°50' E 014°18'0 0.0
2015-May-20 06:24N 40°50' E 014°18'0 0.4
2015-May-20 05:33N 40°50' E 014°17'0 0.2
2015-May-20 04:24N 40°50' E 014°17'0 0.1
2015-May-20 02:32N 40°50' E 014°18'1 0.2
2015-May-19 18:09N 40°51' E 014°16'0 0.0
2015-May-19 17:33N 40°51' E 014°16'0 0.0
2015-May-19 16:33N 40°51' E 014°16'0 0.0
2015-May-19 15:33N 40°51' E 014°16'10 9.7
2015-May-19 14:32N 40°44' E 014°26'1 0.6
2015-May-19 13:30N 40°44' E 014°27'6 5.5
2015-May-19 12:28N 40°47' E 014°20'5 0.7
2015-May-19 05:31N 40°51' E 014°16'1 0.1
2015-May-18 21:32N 40°50' E 014°17'1 0.8
2015-May-18 20:33N 40°50' E 014°17'1 0.1
2015-May-18 12:03N 40°50' E 014°17'0 0.0
2015-May-18 09:29N 40°50' E 014°17'1 0.6
2015-May-18 08:27N 40°50' E 014°16'0 0.1
2015-May-18 06:26N 40°51' E 014°16'1 0.4
2015-May-18 04:29N 40°50' E 014°17'1 0.4
2015-May-18 02:15N 40°51' E 014°16'0 0.0
2015-May-17 22:24N 40°51' E 014°16'0 0.0
2015-May-17 20:04N 40°51' E 014°16'  
Track history (hours):
 
Tides and Currents Weather Stations Pressure Air Temp Water Temp Dewpoint Dewpoint Depression Visibility Wind Speed Wind Dir Waves Ship Positions

San Gennaro

Last reported at 2015-May-27 19:26 UTC. Time now 2015-May-27 22:05 UTC.
Position N 40°51' E 014°16'.

Length 27 m; draft 5.2 m.

Type: Tug. MMSI: 247295700.

Date/timePositionNaut miles runAvg speedWind from/ knotsBaromVisibWave heightAir tempDewpointWater temp
2015-May-27 19:26N 40°51' E 014°16'1 0.4
2015-May-27 17:29N 40°50' E 014°17'1 1.2
2015-May-27 16:32N 40°49' E 014°18'1 1.5
2015-May-27 15:33N 40°48' E 014°18'1 0.7
2015-May-27 14:33N 40°48' E 014°18'2 0.9
2015-May-27 12:22N 40°50' E 014°17'1 0.7
2015-May-27 11:33N 40°50' E 014°18'8 8.5
2015-May-27 10:33N 40°45' E 014°27'5 5.3
2015-May-27 09:33N 40°47' E 014°20'4 3.7
2015-May-27 08:32N 40°50' E 014°18'2 0.4
2015-May-27 04:19N 40°51' E 014°16'1 1.9
2015-May-27 03:33N 40°50' E 014°18'1 1.2
2015-May-27 02:22N 40°51' E 014°16'0 0.0
2015-May-27 01:23N 40°51' E 014°16'0 0.0
2015-May-26 21:22N 40°51' E 014°16'1 1.1
2015-May-26 20:27N 40°50' E 014°17'1 0.2
2015-May-26 15:33N 40°50' E 014°16'8 8.3
2015-May-26 14:33N 40°45' E 014°24'0 0.4
2015-May-26 13:23N 40°45' E 014°24'8 9.4
2015-May-26 12:33N 40°50' E 014°16'0 0.2
2015-May-26 11:16N 40°51' E 014°16'0 0.0
2015-May-26 06:11N 40°51' E 014°16'0 0.0
2015-May-26 04:33N 40°51' E 014°16'0 0.0
2015-May-25 19:10N 40°51' E 014°16'0 0.0
2015-May-25 18:30N 40°51' E 014°16'0 0.4
2015-May-25 17:31N 40°50' E 014°16'0 0.4
2015-May-25 16:23N 40°50' E 014°17'1 0.7
2015-May-25 15:08N 40°51' E 014°16'0 0.0
2015-May-25 13:17N 40°51' E 014°16'2 2.7
2015-May-25 12:32N 40°50' E 014°18'2 0.2
2015-May-25 02:14N 40°51' E 014°16'1 0.2
2015-May-24 19:33N 40°50' E 014°17'1 0.1
2015-May-24 01:29N 40°51' E 014°16'0 0.0
2015-May-23 23:06N 40°51' E 014°16'1 0.1
2015-May-23 19:16N 40°50' E 014°16'1 0.6
2015-May-23 18:19N 40°51' E 014°16'1 1.8
2015-May-23 17:34N 40°50' E 014°18'1 0.3
2015-May-23 13:14N 40°51' E 014°16'0 0.1
2015-May-23 07:20N 40°50' E 014°16'1 0.7
2015-May-23 06:18N 40°50' E 014°17'9 0.5
2015-May-22 13:30N 40°45' E 014°26'9 7.9
2015-May-22 12:22N 40°50' E 014°17'0 0.0
2015-May-21 14:33N 40°50' E 014°17'1 0.8
2015-May-21 13:17N 40°51' E 014°16'0 0.3
2015-May-21 11:33N 40°50' E 014°16'1 0.3
2015-May-21 08:18N 40°50' E 014°18'0 0.0
2015-May-21 07:06N 40°50' E 014°18'1 1.1
2015-May-21 06:25N 40°50' E 014°17'1 0.2
2015-May-21 00:27N 40°51' E 014°16'1 0.2
2015-May-20 21:27N 40°50' E 014°17'0 0.4
2015-May-20 20:28N 40°50' E 014°16'1 0.1
2015-May-20 15:19N 40°51' E 014°16'0 0.0
2015-May-20 14:29N 40°51' E 014°16'0 0.0
2015-May-20 13:27N 40°51' E 014°16'0 0.0
2015-May-20 12:24N 40°51' E 014°16'0 0.0
2015-May-20 11:18N 40°51' E 014°16'1 0.4
2015-May-20 07:29N 40°50' E 014°18'0 0.0
2015-May-20 06:24N 40°50' E 014°18'0 0.4
2015-May-20 05:33N 40°50' E 014°17'0 0.2
2015-May-20 04:24N 40°50' E 014°17'0 0.1
2015-May-20 02:32N 40°50' E 014°18'1 0.2
2015-May-19 18:09N 40°51' E 014°16'0 0.0
2015-May-19 17:33N 40°51' E 014°16'0 0.0
2015-May-19 16:33N 40°51' E 014°16'0 0.0
2015-May-19 15:33N 40°51' E 014°16'10 9.7
2015-May-19 14:32N 40°44' E 014°26'1 0.6
2015-May-19 13:30N 40°44' E 014°27'6 5.5
2015-May-19 12:28N 40°47' E 014°20'5 0.7
2015-May-19 05:31N 40°51' E 014°16'1 0.1
2015-May-18 21:32N 40°50' E 014°17'1 0.8
2015-May-18 20:33N 40°50' E 014°17'1 0.1
2015-May-18 12:03N 40°50' E 014°17'0 0.0
2015-May-18 09:29N 40°50' E 014°17'1 0.6
2015-May-18 08:27N 40°50' E 014°16'0 0.1
2015-May-18 06:26N 40°51' E 014°16'1 0.4
2015-May-18 04:29N 40°50' E 014°17'1 0.4
2015-May-18 02:15N 40°51' E 014°16'0 0.0
2015-May-17 22:24N 40°51' E 014°16'0 0.0
2015-May-17 20:04N 40°51' E 014°16'  

Dump ship's entire track history